Time;durP1;ratioP1;P1;durP2;ratioP2;P2;SDS_P1;SDS_P2;PMS_P1;PMS_P2;Temp;Humidity;BMP_temperature;BMP_pressure;BME280_temperature;BME280_humidity;BME280_pressure;Samples;Min_cycle;Max_cycle;Signal;HPM_P1;HPM_P2
2023/07/31 00:03:56;;;;;;;16.73;5.65;;;;;15.40;100705.00;;;;10386142;28;20209;-78
2023/07/31 00:08:57;;;;;;;21.65;7.55;;;;;15.40;100705.00;;;;10383730;28;20287;-79
2023/07/31 00:13:59;;;;;;;21.45;7.25;;;;;15.50;100704.00;;;;10382775;28;20225;-77
2023/07/31 00:19:00;;;;;;;16.85;5.93;;;;;15.60;100702.00;;;;10384195;28;20228;-77
2023/07/31 00:24:01;;;;;;;17.02;6.68;;;;;15.70;100680.00;;;;10390648;28;20197;-80
2023/07/31 00:29:03;;;;;;;24.98;6.35;;;;;15.70;100670.00;;;;10391784;28;20223;-80
2023/07/31 00:34:04;;;;;;;19.80;6.32;;;;;15.80;100680.00;;;;10386911;28;20224;-78
2023/07/31 00:39:08;;;;;;;25.30;7.38;;;;;15.90;100671.00;;;;10397869;28;20630;-79
2023/07/31 00:44:10;;;;;;;20.23;6.88;;;;;15.90;100672.00;;;;10372306;28;20217;-80
2023/07/31 00:49:12;;;;;;;20.08;6.90;;;;;16.00;100664.00;;;;10369582;28;20744;-78
2023/07/31 00:54:13;;;;;;;23.15;7.25;;;;;16.00;100658.00;;;;10384208;28;20299;-77
2023/07/31 00:59:14;;;;;;;17.92;6.75;;;;;16.10;100663.00;;;;10400019;28;20236;-77
2023/07/31 01:04:17;;;;;;;22.75;6.55;;;;;16.10;100663.00;;;;10384987;28;20203;-78
2023/07/31 01:09:25;;;;;;;15.52;6.40;;;;;16.20;100657.00;;;;10386031;28;20213;-80
2023/07/31 01:14:26;;;;;;;18.67;7.03;;;;;16.20;100656.00;;;;10392980;28;20213;-78
2023/07/31 01:19:29;;;;;;;19.65;6.72;;;;;16.20;100653.00;;;;10380758;28;20213;-77
2023/07/31 01:24:43;;;;;;;24.80;7.05;;;;;16.10;100647.00;;;;10398725;28;20441;-76
2023/07/31 01:29:56;;;;;;;15.10;5.65;;;;;16.10;100651.00;;;;10414782;28;20251;-77
2023/07/31 01:34:59;;;;;;;14.48;6.13;;;;;16.10;100654.00;;;;10399172;28;20216;-77
2023/07/31 01:40:00;;;;;;;15.18;6.28;;;;;16.10;100652.00;;;;10412945;28;20291;-78
2023/07/31 01:45:02;;;;;;;17.42;6.57;;;;;16.10;100642.00;;;;10396086;28;20583;-78
2023/07/31 01:50:05;;;;;;;15.77;7.47;;;;;16.20;100633.00;;;;10375863;28;20216;-77
2023/07/31 01:55:06;;;;;;;13.50;6.05;;;;;16.20;100628.00;;;;10396128;28;20201;-78
2023/07/31 02:00:08;;;;;;;23.65;6.85;;;;;16.20;100612.00;;;;10397270;28;20231;-76
2023/07/31 02:05:15;;;;;;;17.52;6.78;;;;;16.20;100599.00;;;;10416075;28;20243;-77
2023/07/31 02:10:17;;;;;;;20.52;7.28;;;;;16.20;100603.00;;;;10398040;28;20396;-77
2023/07/31 02:15:18;;;;;;;16.52;6.57;;;;;16.30;100596.00;;;;10396714;28;20236;-77
2023/07/31 02:20:20;;;;;;;22.08;6.93;;;;;16.30;100593.00;;;;10414808;28;22148;-77
2023/07/31 02:25:21;;;;;;;16.10;7.13;;;;;16.30;100574.00;;;;10411554;28;20209;-77
2023/07/31 02:30:22;;;;;;;19.77;7.20;;;;;16.30;100577.00;;;;10376635;28;20555;-78
2023/07/31 02:35:24;;;;;;;15.57;6.90;;;;;16.40;100566.00;;;;10396710;28;22295;-76
2023/07/31 02:40:25;;;;;;;11.63;6.88;;;;;16.40;100552.00;;;;10413742;28;20761;-79
2023/07/31 02:45:27;;;;;;;18.55;7.63;;;;;16.40;100554.00;;;;10396528;28;20228;-77
2023/07/31 02:50:28;;;;;;;15.90;6.65;;;;;16.40;100541.00;;;;10413297;28;21670;-78
2023/07/31 02:55:29;;;;;;;11.82;6.65;;;;;16.40;100532.00;;;;10388866;28;21439;-78
2023/07/31 03:00:32;;;;;;;9.95;6.43;;;;;16.50;100539.00;;;;10377107;28;20310;-76
2023/07/31 03:05:33;;;;;;;20.83;7.47;;;;;16.50;100538.00;;;;10381206;28;20216;-77
2023/07/31 03:10:34;;;;;;;11.35;6.03;;;;;16.50;100536.00;;;;10395456;28;20524;-79
2023/07/31 03:15:36;;;;;;;12.30;6.47;;;;;16.50;100530.00;;;;10411428;28;20201;-78
2023/07/31 03:20:37;;;;;;;11.30;5.82;;;;;16.50;100515.00;;;;10382648;28;20295;-78
2023/07/31 03:25:41;;;;;;;9.98;5.30;;;;;16.40;100510.00;;;;10377144;28;20738;-77
2023/07/31 03:30:42;;;;;;;13.68;6.38;;;;;16.40;100514.00;;;;10409206;28;20316;-79
2023/07/31 03:35:44;;;;;;;10.35;5.53;;;;;16.40;100513.00;;;;10413444;28;20820;-78
2023/07/31 03:40:45;;;;;;;9.77;5.53;;;;;16.40;100492.00;;;;10411100;28;20897;-78
2023/07/31 03:45:46;;;;;;;9.65;6.30;;;;;16.40;100505.00;;;;10397807;28;20298;-80
2023/07/31 03:50:48;;;;;;;9.57;5.90;;;;;16.40;100488.00;;;;10398380;28;20544;-79
2023/07/31 03:55:49;;;;;;;8.00;5.43;;;;;16.30;100482.00;;;;10395537;28;21357;-77
2023/07/31 04:00:50;;;;;;;11.80;6.15;;;;;16.20;100491.00;;;;10407720;28;20672;-77
2023/07/31 04:05:54;;;;;;;12.75;6.38;;;;;16.20;100477.00;;;;10411973;28;20208;-80
2023/07/31 04:10:56;;;;;;;12.98;6.18;;;;;16.10;100469.00;;;;10394660;28;20204;-78
2023/07/31 04:15:57;;;;;;;9.55;6.13;;;;;16.10;100457.00;;;;10409991;28;20205;-79
2023/07/31 04:20:58;;;;;;;12.73;6.03;;;;;16.10;100456.00;;;;10392831;28;20205;-78
2023/07/31 04:25:59;;;;;;;14.10;6.20;;;;;16.00;100445.00;;;;10372931;28;20771;-79
2023/07/31 04:31:01;;;;;;;12.68;5.55;;;;;16.00;100459.00;;;;10380773;28;20678;-79
2023/07/31 04:36:02;;;;;;;11.82;6.32;;;;;16.00;100443.00;;;;10400233;28;20247;-79
2023/07/31 04:41:05;;;;;;;8.90;6.07;;;;;16.10;100449.00;;;;10390478;28;20393;-78
2023/07/31 04:46:06;;;;;;;13.73;6.30;;;;;16.20;100440.00;;;;10403835;28;20226;-79
2023/07/31 04:51:09;;;;;;;13.75;5.97;;;;;16.20;100438.00;;;;10384661;28;20289;-77
2023/07/31 04:56:10;;;;;;;16.80;6.30;;;;;16.20;100441.00;;;;10397558;28;20225;-78
2023/07/31 05:01:11;;;;;;;12.82;6.85;;;;;16.20;100438.00;;;;10400264;28;20907;-80
2023/07/31 05:06:13;;;;;;;9.50;6.10;;;;;16.20;100436.00;;;;10400968;28;20211;-77
2023/07/31 05:11:14;;;;;;;13.52;6.38;;;;;16.20;100420.00;;;;10384718;28;20239;-79
2023/07/31 05:16:15;;;;;;;12.30;5.82;;;;;16.20;100431.00;;;;10397130;28;20220;-78
2023/07/31 05:21:17;;;;;;;13.70;6.57;;;;;16.30;100421.00;;;;10381386;28;20293;-79
2023/07/31 05:26:18;;;;;;;12.68;6.00;;;;;16.20;100418.00;;;;10406953;28;20331;-80
2023/07/31 05:31:22;;;;;;;11.15;5.20;;;;;16.20;100411.00;;;;10397105;28;20787;-79
2023/07/31 05:36:23;;;;;;;9.55;5.13;;;;;16.10;100402.00;;;;10418078;28;20530;-79
2023/07/31 05:41:27;;;;;;;10.90;5.07;;;;;16.10;100393.00;;;;10419097;28;20204;-80
2023/07/31 05:46:28;;;;;;;9.43;5.20;;;;;16.10;100407.00;;;;10426101;28;20579;-79
2023/07/31 05:51:30;;;;;;;13.23;5.82;;;;;16.10;100404.00;;;;10425514;28;20593;-80
2023/07/31 05:56:33;;;;;;;7.43;5.38;;;;;16.10;100402.00;;;;10380788;28;20217;-77
2023/07/31 06:01:34;;;;;;;11.20;5.82;;;;;16.00;100394.00;;;;10379808;28;21047;-78
2023/07/31 06:06:35;;;;;;;33.97;6.07;;;;;16.20;100397.00;;;;10396568;28;20247;-78
2023/07/31 06:11:37;;;;;;;11.00;5.65;;;;;16.40;100385.00;;;;10408644;28;20624;-78
2023/07/31 06:16:38;;;;;;;13.45;5.47;;;;;16.40;100393.00;;;;10418921;28;20263;-78
2023/07/31 06:21:43;;;;;;;11.13;5.85;;;;;16.40;100387.00;;;;10385042;28;20288;-79
2023/07/31 06:26:44;;;;;;;14.40;5.75;;;;;16.40;100388.00;;;;10425810;28;20718;-77
2023/07/31 06:31:46;;;;;;;12.63;5.65;;;;;16.50;100381.00;;;;10418904;28;21083;-77
2023/07/31 06:36:47;;;;;;;10.82;5.55;;;;;16.60;100375.00;;;;10395587;28;20237;-78
2023/07/31 06:41:48;;;;;;;18.20;6.95;;;;;16.80;100373.00;;;;10394901;28;20248;-78
2023/07/31 06:46:49;;;;;;;11.35;5.50;;;;;17.20;100366.00;;;;10413406;28;21009;-78
2023/07/31 06:51:51;;;;;;;12.82;5.30;;;;;17.60;100352.00;;;;10412036;28;20427;-79
2023/07/31 06:56:52;;;;;;;11.10;5.35;;;;;17.90;100350.00;;;;10408817;28;21625;-77
2023/07/31 07:01:53;;;;;;;8.63;4.85;;;;;18.30;100337.00;;;;10413297;28;20763;-76
2023/07/31 07:06:55;;;;;;;8.23;4.88;;;;;18.70;100325.00;;;;10418188;28;20569;-79
2023/07/31 07:11:56;;;;;;;8.90;4.60;;;;;19.10;100321.00;;;;10392406;28;22207;-77
2023/07/31 07:16:57;;;;;;;10.63;4.80;;;;;19.20;100336.00;;;;10385031;28;21107;-79
2023/07/31 07:22:01;;;;;;;9.88;4.38;;;;;19.40;100343.00;;;;10415746;28;20694;-78
2023/07/31 07:27:03;;;;;;;7.82;4.22;;;;;19.50;100338.00;;;;10392940;28;20332;-78
2023/07/31 07:32:05;;;;;;;9.98;4.10;;;;;19.50;100348.00;;;;10376733;28;20711;-78
2023/07/31 07:37:06;;;;;;;9.40;3.97;;;;;19.10;100349.00;;;;10393687;28;20247;-78
2023/07/31 07:42:07;;;;;;;10.65;3.80;;;;;18.70;100357.00;;;;10394135;28;20208;-78
2023/07/31 07:47:08;;;;;;;9.85;3.88;;;;;18.70;100362.00;;;;10414064;28;20204;-79
2023/07/31 07:52:10;;;;;;;6.95;4.40;;;;;18.60;100366.00;;;;10412198;28;20209;-78
2023/07/31 07:57:11;;;;;;;8.80;4.00;;;;;18.60;100357.00;;;;10392116;28;20315;-78
2023/07/31 08:02:12;;;;;;;5.78;3.65;;;;;18.80;100361.00;;;;10393847;28;20209;-79
2023/07/31 08:07:14;;;;;;;6.63;3.45;;;;;19.10;100356.00;;;;10394040;28;20219;-80
2023/07/31 08:12:15;;;;;;;7.35;3.63;;;;;19.10;100355.00;;;;10410542;28;20319;-77
2023/07/31 08:17:16;;;;;;;8.73;3.53;;;;;19.90;100351.00;;;;10388967;28;20224;-77
2023/07/31 08:22:18;;;;;;;7.78;3.67;;;;;20.30;100351.00;;;;10392747;28;20209;-78
2023/07/31 08:27:19;;;;;;;11.07;3.47;;;;;20.70;100346.00;;;;10411832;28;20236;-79
2023/07/31 08:32:20;;;;;;;5.68;3.20;;;;;20.50;100360.00;;;;10411541;28;20773;-80
2023/07/31 08:37:21;;;;;;;10.15;3.10;;;;;20.00;100359.00;;;;10411790;28;20480;-80
2023/07/31 08:42:23;;;;;;;5.85;2.80;;;;;20.20;100361.00;;;;10391002;28;20197;-80
2023/07/31 08:47:25;;;;;;;6.20;3.08;;;;;19.90;100359.00;;;;10375606;28;20614;-76
2023/07/31 08:52:27;;;;;;;7.90;3.50;;;;;19.70;100348.00;;;;10396700;28;20209;-79
2023/07/31 08:57:29;;;;;;;6.10;3.28;;;;;19.80;100354.00;;;;10376935;28;20220;-78
2023/07/31 09:02:37;;;;;;;10.15;3.85;;;;;20.10;100344.00;;;;10393328;28;20953;-80
2023/07/31 09:07:40;;;;;;;4.50;3.55;;;;;19.70;100353.00;;;;10394912;28;21539;-78
2023/07/31 09:12:42;;;;;;;6.22;4.03;;;;;19.80;100351.00;;;;10385494;28;21396;-78
2023/07/31 09:17:44;;;;;;;7.07;4.35;;;;;19.80;100360.00;;;;10367638;28;20624;-78
2023/07/31 09:22:47;;;;;;;8.93;3.63;;;;;19.90;100342.00;;;;10410402;28;20215;-79
2023/07/31 09:28:00;;;;;;;8.25;3.88;;;;;20.10;100324.00;;;;10414473;28;20304;-80
2023/07/31 09:33:06;;;;;;;6.97;3.90;;;;;21.60;100318.00;;;;10411786;28;20279;-78
2023/07/31 09:38:10;;;;;;;6.65;3.92;;;;;23.50;100312.00;;;;10383587;28;20760;-78
2023/07/31 09:43:13;;;;;;;7.47;3.92;;;;;23.50;100320.00;;;;10433406;28;20250;-79
2023/07/31 09:48:18;;;;;;;5.80;2.95;;;;;23.30;100318.00;;;;10438757;28;20209;-78
2023/07/31 09:53:27;;;;;;;8.52;3.75;;;;;23.10;100312.00;;;;10426086;28;20202;-78
2023/07/31 09:58:30;;;;;;;7.90;3.78;;;;;22.30;100333.00;;;;10420552;28;20264;-79
2023/07/31 10:03:32;;;;;;;5.55;3.40;;;;;21.60;100332.00;;;;10403596;28;20201;-77
2023/07/31 10:08:36;;;;;;;10.32;3.90;;;;;20.80;100324.00;;;;10440388;28;20212;-78
2023/07/31 10:13:37;;;;;;;4.88;3.65;;;;;20.60;100320.00;;;;10397425;28;20703;-78
2023/07/31 10:18:39;;;;;;;4.95;3.70;;;;;20.70;100318.00;;;;10424898;28;20984;-77
2023/07/31 10:23:43;;;;;;;5.22;3.75;;;;;20.80;100317.00;;;;10430813;28;20200;-78
2023/07/31 10:28:46;;;;;;;8.68;3.90;;;;;20.80;100312.00;;;;10414546;28;21244;-78
2023/07/31 10:33:48;;;;;;;12.65;4.55;;;;;21.10;100309.00;;;;10401346;28;20279;-81
2023/07/31 10:38:53;;;;;;;7.60;4.93;;;;;21.30;100321.00;;;;10421515;28;20236;-81
2023/07/31 10:43:57;;;;;;;11.10;4.28;;;;;21.20;100315.00;;;;10396733;28;20210;-80
2023/07/31 10:49:01;;;;;;;8.05;4.55;;;;;20.90;100309.00;;;;10412839;28;20207;-78
2023/07/31 10:54:21;;;;;;;7.68;4.97;;;;;21.00;100292.00;;;;10360443;28;20204;-78
2023/07/31 10:59:28;;;;;;;9.20;4.07;;;;;22.20;100293.00;;;;10401297;28;20488;-78
2023/07/31 11:04:30;;;;;;;12.05;4.53;;;;;22.20;100285.00;;;;10396678;28;20362;-79
2023/07/31 11:09:33;;;;;;;7.60;4.05;;;;;21.70;100282.00;;;;10388954;28;20235;-78
2023/07/31 11:14:34;;;;;;;8.18;4.93;;;;;21.50;100281.00;;;;10380061;28;20201;-79
2023/07/31 11:19:37;;;;;;;7.63;4.00;;;;;22.20;100269.00;;;;10413500;28;20252;-78
2023/07/31 11:24:39;;;;;;;7.53;4.53;;;;;22.90;100263.00;;;;10394577;28;20519;-79
2023/07/31 11:29:40;;;;;;;8.85;4.22;;;;;23.00;100266.00;;;;10414797;28;20217;-80
2023/07/31 11:34:54;;;;;;;9.15;5.15;;;;;22.40;100256.00;;;;10371668;28;21175;-79
2023/07/31 11:40:03;;;;;;;9.27;4.28;;;;;22.50;100250.00;;;;10406770;28;20220;-77
2023/07/31 11:45:06;;;;;;;8.68;5.15;;;;;22.60;100259.00;;;;10378549;28;20317;-81
2023/07/31 11:50:12;;;;;;;7.85;5.35;;;;;21.40;100258.00;;;;10391455;28;20887;-77
2023/07/31 11:55:15;;;;;;;9.52;5.03;;;;;21.30;100252.00;;;;10360618;28;20213;-77
2023/07/31 12:00:17;;;;;;;10.02;4.65;;;;;21.10;100246.00;;;;10361927;28;20635;-78
2023/07/31 12:05:18;;;;;;;8.85;4.95;;;;;21.50;100237.00;;;;10410725;28;20237;-77
2023/07/31 12:10:31;;;;;;;9.35;5.43;;;;;21.80;100206.00;;;;10377162;28;20343;-78
2023/07/31 12:15:34;;;;;;;11.25;4.32;;;;;22.00;100201.00;;;;10410207;28;20574;-78
2023/07/31 12:20:40;;;;;;;11.00;5.55;;;;;21.70;100202.00;;;;10414194;28;20231;-77
2023/07/31 12:25:41;;;;;;;8.18;4.40;;;;;21.40;100200.00;;;;10413534;28;20232;-77
2023/07/31 12:30:45;;;;;;;7.95;4.60;;;;;21.40;100204.00;;;;10408165;28;20193;-77
2023/07/31 12:35:47;;;;;;;10.63;5.00;;;;;22.20;100187.00;;;;10394591;28;20560;-78
2023/07/31 12:40:48;;;;;;;8.38;4.60;;;;;22.80;100179.00;;;;10428841;28;20225;-78
2023/07/31 12:45:50;;;;;;;8.18;4.57;;;;;23.20;100184.00;;;;10436656;28;20209;-77
2023/07/31 12:50:51;;;;;;;8.68;4.97;;;;;22.90;100178.00;;;;10384472;28;21709;-80
2023/07/31 12:55:53;;;;;;;8.15;4.97;;;;;23.30;100175.00;;;;10382100;28;20209;-80
2023/07/31 13:00:54;;;;;;;7.57;4.53;;;;;22.90;100178.00;;;;10420499;28;20931;-78
2023/07/31 13:05:55;;;;;;;7.93;4.10;;;;;22.10;100179.00;;;;10427799;28;20203;-80
2023/07/31 13:10:57;;;;;;;9.23;4.75;;;;;21.30;100179.00;;;;10422097;28;21115;-80
2023/07/31 13:15:59;;;;;;;7.50;4.10;;;;;20.80;100187.00;;;;10439453;28;20208;-81
2023/07/31 13:21:00;;;;;;;6.85;4.15;;;;;20.50;100200.00;;;;10438936;28;20316;-80
2023/07/31 13:26:01;;;;;;;10.60;4.10;;;;;20.10;100192.00;;;;10421168;28;21326;-81
2023/07/31 13:31:02;;;;;;;9.23;4.05;;;;;20.00;100183.00;;;;10417802;28;20319;-79
2023/07/31 13:36:04;;;;;;;10.05;3.85;;;;;19.50;100175.00;;;;10412545;28;20822;-78
2023/07/31 13:41:06;;;;;;;8.52;3.50;;;;;19.00;100169.00;;;;10413229;28;20275;-80
2023/07/31 13:46:08;;;;;;;6.28;3.78;;;;;18.80;100179.00;;;;10383371;28;20421;-78
2023/07/31 13:51:09;;;;;;;9.38;3.78;;;;;18.60;100172.00;;;;10416857;28;20209;-79
2023/07/31 13:56:10;;;;;;;6.68;3.85;;;;;18.70;100179.00;;;;10358387;28;20284;-78
2023/07/31 14:01:11;;;;;;;6.70;3.80;;;;;18.80;100176.00;;;;10412341;28;20293;-77
2023/07/31 14:06:13;;;;;;;4.68;2.97;;;;;18.60;100180.00;;;;10417376;28;20442;-79
2023/07/31 14:11:14;;;;;;;6.93;3.28;;;;;18.70;100178.00;;;;10415732;28;20200;-77
2023/07/31 14:16:16;;;;;;;6.85;3.38;;;;;18.70;100176.00;;;;10395006;28;20213;-79
2023/07/31 14:21:19;;;;;;;6.55;3.45;;;;;18.70;100160.00;;;;10371383;28;20801;-78
2023/07/31 14:26:20;;;;;;;7.03;4.35;;;;;18.70;100157.00;;;;10398997;28;21554;-79
2023/07/31 14:31:21;;;;;;;6.75;3.40;;;;;18.90;100128.00;;;;10412729;28;20387;-78
2023/07/31 14:36:23;;;;;;;9.27;3.70;;;;;19.00;100123.00;;;;10395896;28;20229;-78
2023/07/31 14:41:24;;;;;;;7.40;3.00;;;;;18.90;100112.00;;;;10416784;28;20224;-78
2023/07/31 14:46:25;;;;;;;4.18;3.08;;;;;18.70;100121.00;;;;10378100;28;20281;-77
2023/07/31 14:51:27;;;;;;;5.25;2.92;;;;;18.60;100124.00;;;;10377191;28;20188;-79
2023/07/31 14:56:29;;;;;;;6.82;3.25;;;;;18.70;100118.00;;;;10389401;28;21015;-79
2023/07/31 15:01:30;;;;;;;5.72;2.63;;;;;18.80;100084.00;;;;10411869;28;20288;-78
2023/07/31 15:06:32;;;;;;;4.30;2.33;;;;;18.80;100083.00;;;;10406486;28;20225;-79
2023/07/31 15:11:33;;;;;;;5.32;2.95;;;;;18.60;100077.00;;;;10420984;28;20274;-79
2023/07/31 15:16:35;;;;;;;3.28;2.38;;;;;18.70;100070.00;;;;10434782;28;20213;-78
2023/07/31 15:21:37;;;;;;;2.63;1.73;;;;;18.60;100054.00;;;;10415626;28;20296;-79
2023/07/31 15:26:38;;;;;;;3.67;1.98;;;;;18.40;100050.00;;;;10400908;28;20744;-79
2023/07/31 15:31:41;;;;;;;2.60;1.75;;;;;18.50;100037.00;;;;10375631;28;21439;-76
2023/07/31 15:36:42;;;;;;;2.88;1.83;;;;;18.50;100022.00;;;;10381618;28;20362;-77
2023/07/31 15:41:45;;;;;;;1.55;1.45;;;;;18.40;100015.00;;;;10409195;28;22068;-78
2023/07/31 15:46:46;;;;;;;2.40;1.50;;;;;18.30;100017.00;;;;10411167;28;20938;-76
2023/07/31 15:51:47;;;;;;;2.50;1.10;;;;;18.20;100010.00;;;;10405569;28;20216;-79
2023/07/31 15:56:48;;;;;;;1.17;1.08;;;;;18.20;99989.00;;;;10388511;28;20331;-79
2023/07/31 16:01:49;;;;;;;1.23;1.13;;;;;18.20;99992.00;;;;10407438;28;21057;-79
2023/07/31 16:06:51;;;;;;;1.45;1.00;;;;;18.00;99984.00;;;;10390193;28;20640;-77
2023/07/31 16:11:52;;;;;;;2.03;1.17;;;;;18.00;99988.00;;;;10374774;28;20300;-78
2023/07/31 16:16:54;;;;;;;3.08;1.20;;;;;17.90;99980.00;;;;10381864;28;21218;-80
2023/07/31 16:21:56;;;;;;;1.88;1.23;;;;;17.90;99964.00;;;;10390146;28;20343;-79
2023/07/31 16:26:57;;;;;;;1.30;1.05;;;;;18.00;99967.00;;;;10404227;28;20297;-80
2023/07/31 16:31:58;;;;;;;2.15;1.90;;;;;18.30;99949.00;;;;10413817;28;20209;-79
2023/07/31 16:37:00;;;;;;;1.77;1.48;;;;;18.30;99937.00;;;;10413412;28;21992;-80
2023/07/31 16:42:02;;;;;;;4.72;1.40;;;;;18.30;99929.00;;;;10411636;28;20220;-78
2023/07/31 16:47:04;;;;;;;6.60;1.92;;;;;18.10;99911.00;;;;10415339;28;20209;-79
2023/07/31 16:52:05;;;;;;;2.00;1.23;;;;;18.00;99905.00;;;;10385499;28;20229;-77
2023/07/31 16:57:06;;;;;;;1.48;1.10;;;;;17.90;99906.00;;;;10404822;28;20337;-78
2023/07/31 17:02:08;;;;;;;2.75;1.50;;;;;17.80;99905.00;;;;10428641;28;20216;-79
2023/07/31 17:07:10;;;;;;;2.00;1.38;;;;;17.80;99896.00;;;;10416534;28;20205;-80
2023/07/31 17:12:12;;;;;;;3.22;1.80;;;;;17.80;99880.00;;;;10387626;28;20201;-79
2023/07/31 17:17:13;;;;;;;8.85;1.77;;;;;17.80;99888.00;;;;10416876;28;20217;-80
2023/07/31 17:22:14;;;;;;;3.78;2.47;;;;;17.70;99880.00;;;;10430769;28;20770;-80
2023/07/31 17:27:16;;;;;;;6.50;2.33;;;;;17.70;99875.00;;;;10431145;28;20206;-79
2023/07/31 17:32:17;;;;;;;5.03;2.90;;;;;17.70;99875.00;;;;10417542;28;20206;-79
2023/07/31 17:37:22;;;;;;;3.92;3.10;;;;;17.70;99876.00;;;;10398090;28;20236;-78
2023/07/31 17:42:23;;;;;;;4.30;2.83;;;;;17.70;99872.00;;;;10390801;28;20208;-79
2023/07/31 17:47:25;;;;;;;5.65;3.33;;;;;17.60;99866.00;;;;10381970;28;20209;-79
2023/07/31 17:52:26;;;;;;;6.32;3.10;;;;;17.60;99867.00;;;;10408736;28;20219;-78
2023/07/31 17:57:27;;;;;;;7.05;3.67;;;;;17.60;99866.00;;;;10396916;28;20337;-80
2023/07/31 18:02:29;;;;;;;5.40;3.10;;;;;17.60;99821.00;;;;10409080;28;20216;-80
2023/07/31 18:07:31;;;;;;;5.35;2.85;;;;;17.60;99748.00;;;;10428811;28;21068;-79
2023/07/31 18:12:32;;;;;;;2.88;2.22;;;;;17.60;99665.00;;;;10424999;28;20201;-79
2023/07/31 18:17:34;;;;;;;2.70;1.83;;;;;17.60;99706.00;;;;10396054;28;20293;-78
2023/07/31 18:22:37;;;;;;;4.72;2.15;;;;;17.60;99790.00;;;;10369447;28;20220;-77
2023/07/31 18:27:38;;;;;;;3.78;2.30;;;;;17.60;99795.00;;;;10407852;28;20263;-79
2023/07/31 18:32:40;;;;;;;5.65;2.20;;;;;17.70;99796.00;;;;10407535;28;20572;-77
2023/07/31 18:37:41;;;;;;;4.85;2.60;;;;;17.70;99797.00;;;;10388172;28;20319;-78
2023/07/31 18:42:43;;;;;;;3.83;2.25;;;;;17.70;99786.00;;;;10387498;28;20316;-78
2023/07/31 18:47:44;;;;;;;2.90;2.60;;;;;17.50;99782.00;;;;10406196;28;20807;-77
2023/07/31 18:52:45;;;;;;;2.95;2.10;;;;;17.50;99778.00;;;;10387220;28;20197;-78
2023/07/31 18:57:47;;;;;;;3.95;2.35;;;;;17.50;99788.00;;;;10410533;28;20817;-77
2023/07/31 19:02:49;;;;;;;4.43;2.80;;;;;17.50;99780.00;;;;10409596;28;20394;-78
2023/07/31 19:07:50;;;;;;;3.38;2.40;;;;;17.40;99779.00;;;;10376742;28;20224;-78
2023/07/31 19:12:52;;;;;;;4.28;2.40;;;;;17.40;99769.00;;;;10392295;28;20209;-78
2023/07/31 19:17:53;;;;;;;5.03;2.67;;;;;17.40;99749.00;;;;10392684;28;20715;-78
2023/07/31 19:22:55;;;;;;;3.72;2.60;;;;;17.30;99756.00;;;;10372777;28;20267;-78
2023/07/31 19:27:56;;;;;;;5.30;2.50;;;;;17.30;99743.00;;;;10360657;28;20806;-77
2023/07/31 19:32:59;;;;;;;8.18;3.00;;;;;17.30;99746.00;;;;10388524;28;20243;-77
2023/07/31 19:38:00;;;;;;;3.05;2.70;;;;;17.30;99751.00;;;;10391017;28;20232;-79
2023/07/31 19:43:01;;;;;;;7.20;3.35;;;;;17.30;99754.00;;;;10403893;28;20205;-79
2023/07/31 19:48:02;;;;;;;6.07;2.92;;;;;17.30;99741.00;;;;10387505;28;20213;-78
2023/07/31 19:53:04;;;;;;;9.70;2.50;;;;;17.30;99718.00;;;;10420243;28;21939;-76
2023/07/31 19:58:05;;;;;;;2.63;2.42;;;;;17.30;99713.00;;;;10400335;28;20236;-77
2023/07/31 20:03:07;;;;;;;5.50;2.97;;;;;17.30;99731.00;;;;10403356;28;20693;-78
2023/07/31 20:08:08;;;;;;;3.08;2.10;;;;;17.30;99713.00;;;;10411260;28;21784;-78
2023/07/31 20:13:09;;;;;;;5.90;2.00;;;;;17.20;99698.00;;;;10410488;28;20240;-79
2023/07/31 20:18:10;;;;;;;3.78;2.10;;;;;17.20;99699.00;;;;10412369;28;20213;-80
2023/07/31 20:23:12;;;;;;;3.63;2.47;;;;;17.20;99694.00;;;;10397109;28;20211;-79
2023/07/31 20:28:13;;;;;;;5.15;2.20;;;;;17.20;99680.00;;;;10396550;28;20890;-80
2023/07/31 20:33:15;;;;;;;4.53;2.10;;;;;17.30;99661.00;;;;10431176;28;20248;-79
2023/07/31 20:38:16;;;;;;;3.17;1.60;;;;;17.30;99658.00;;;;10415965;28;20831;-79
2023/07/31 20:43:18;;;;;;;5.28;1.80;;;;;17.30;99649.00;;;;10417350;28;20197;-79
2023/07/31 20:48:19;;;;;;;8.82;1.80;;;;;17.30;99651.00;;;;10405368;28;20201;-78
2023/07/31 20:53:21;;;;;;;4.65;1.65;;;;;17.40;99630.00;;;;10407371;28;20208;-78
2023/07/31 20:58:22;;;;;;;2.55;1.73;;;;;17.40;99634.00;;;;10397900;28;22095;-80
2023/07/31 21:03:23;;;;;;;6.55;2.00;;;;;17.40;99607.00;;;;10399446;28;20209;-79
2023/07/31 21:08:25;;;;;;;2.83;1.65;;;;;17.40;99610.00;;;;10400322;28;21089;-78
2023/07/31 21:13:26;;;;;;;2.05;1.83;;;;;17.40;99608.00;;;;10418917;28;20897;-77
2023/07/31 21:18:28;;;;;;;5.35;1.95;;;;;17.40;99590.00;;;;10385572;28;20229;-79
2023/07/31 21:23:29;;;;;;;4.63;1.77;;;;;17.40;99595.00;;;;10396614;28;20298;-78
2023/07/31 21:28:30;;;;;;;1.65;1.40;;;;;17.40;99589.00;;;;10418185;28;21653;-78
2023/07/31 21:33:32;;;;;;;1.90;1.30;;;;;17.40;99581.00;;;;10409033;28;20204;-78
2023/07/31 21:38:33;;;;;;;4.60;1.52;;;;;17.30;99577.00;;;;10422239;28;21842;-78
2023/07/31 21:43:34;;;;;;;7.18;1.73;;;;;17.30;99573.00;;;;10421507;28;20685;-78
2023/07/31 21:48:36;;;;;;;4.50;1.85;;;;;17.20;99573.00;;;;10418562;28;20209;-79
2023/07/31 21:53:37;;;;;;;2.00;1.50;;;;;17.20;99573.00;;;;10401939;28;21802;-78
2023/07/31 21:58:38;;;;;;;1.70;1.60;;;;;17.20;99532.00;;;;10371777;28;21064;-78
2023/07/31 22:03:39;;;;;;;3.53;2.20;;;;;17.10;99540.00;;;;10419062;28;20215;-78
2023/07/31 22:08:41;;;;;;;8.52;2.03;;;;;17.10;99544.00;;;;10387564;28;20220;-80
2023/07/31 22:13:42;;;;;;;4.38;1.90;;;;;17.10;99554.00;;;;10390162;28;20208;-78
2023/07/31 22:18:44;;;;;;;2.80;2.00;;;;;17.00;99538.00;;;;10407419;28;20225;-78
2023/07/31 22:23:45;;;;;;;4.10;1.80;;;;;17.00;99531.00;;;;10405516;28;21674;-78
2023/07/31 22:28:46;;;;;;;2.65;1.67;;;;;16.80;99521.00;;;;10439113;28;21859;-79
2023/07/31 22:33:48;;;;;;;3.28;1.48;;;;;16.80;99516.00;;;;10405258;28;20217;-78
2023/07/31 22:38:50;;;;;;;4.80;2.00;;;;;16.70;99518.00;;;;10408029;28;20283;-79
2023/07/31 22:43:51;;;;;;;3.90;1.63;;;;;16.60;99510.00;;;;10440810;28;20581;-77
2023/07/31 22:48:53;;;;;;;2.17;1.55;;;;;16.50;99504.00;;;;10427067;28;20225;-78
2023/07/31 22:53:54;;;;;;;3.67;1.52;;;;;16.40;99503.00;;;;10407494;28;20224;-78
2023/07/31 22:58:56;;;;;;;3.22;2.00;;;;;16.40;99500.00;;;;10425392;28;20263;-79
2023/07/31 23:03:57;;;;;;;5.28;2.33;;;;;16.40;99497.00;;;;10422398;28;20211;-78
2023/07/31 23:08:58;;;;;;;10.50;2.60;;;;;16.30;99505.00;;;;10425631;28;20205;-78
2023/07/31 23:14:00;;;;;;;9.52;2.58;;;;;16.30;99490.00;;;;10411079;28;20678;-77
2023/07/31 23:19:01;;;;;;;4.93;2.70;;;;;16.30;99496.00;;;;10424461;28;20345;-78
2023/07/31 23:24:02;;;;;;;10.45;3.65;;;;;16.30;99494.00;;;;10441913;28;20211;-80
2023/07/31 23:29:04;;;;;;;8.57;2.90;;;;;16.30;99496.00;;;;10443364;28;21962;-81
2023/07/31 23:34:05;;;;;;;3.60;1.90;;;;;16.20;99502.00;;;;10441897;28;20292;-76
2023/07/31 23:39:06;;;;;;;5.40;2.08;;;;;16.20;99493.00;;;;10439868;28;20217;-77
2023/07/31 23:44:07;;;;;;;3.05;1.67;;;;;16.20;99487.00;;;;10403008;28;20212;-79
2023/07/31 23:49:09;;;;;;;6.68;2.22;;;;;16.10;99493.00;;;;10415143;28;20227;-79
2023/07/31 23:54:12;;;;;;;3.28;2.30;;;;;16.00;99486.00;;;;10380595;28;20575;-80
2023/07/31 23:59:13;;;;;;;3.75;2.38;;;;;15.90;99487.00;;;;10409152;28;20236;-79
